createdAt,value
2017-09-28T00:01:22.995Z,15.00
2017-09-28T00:03:50.466Z,14.90
2017-09-28T00:06:17.904Z,14.90
2017-09-28T00:08:45.391Z,14.80
2017-09-28T00:11:13.660Z,14.80
2017-09-28T00:13:41.137Z,14.80
2017-09-28T00:16:08.608Z,14.80
2017-09-28T00:18:36.066Z,14.80
2017-09-28T00:21:03.519Z,14.90
2017-09-28T00:23:30.975Z,14.80
2017-09-28T00:25:58.442Z,14.80
2017-09-28T00:28:26.699Z,14.80
2017-09-28T00:30:54.196Z,14.70
2017-09-28T00:33:21.662Z,14.80
2017-09-28T00:35:49.108Z,14.90
2017-09-28T00:38:17.318Z,14.90
2017-09-28T00:40:45.487Z,14.90
2017-09-28T00:43:12.938Z,14.90
2017-09-28T00:45:40.408Z,15.00
2017-09-28T00:48:07.938Z,15.10
2017-09-28T00:50:36.216Z,15.10
2017-09-28T00:53:03.657Z,15.20
2017-09-28T00:55:31.131Z,15.10
2017-09-28T00:57:58.913Z,15.10
2017-09-28T01:00:26.389Z,15.00
2017-09-28T01:02:53.887Z,15.10
2017-09-28T01:05:21.979Z,15.00
2017-09-28T01:07:49.435Z,14.80
2017-09-28T01:10:16.935Z,15.00
2017-09-28T01:12:44.406Z,15.00
2017-09-28T01:15:11.872Z,15.10
2017-09-28T01:17:39.331Z,15.10
2017-09-28T01:20:06.804Z,15.10
2017-09-28T01:22:34.312Z,15.10
2017-09-28T01:25:01.780Z,15.20
2017-09-28T01:27:29.236Z,15.10
2017-09-28T01:29:57.399Z,15.10
2017-09-28T01:32:25.649Z,15.00
2017-09-28T01:34:53.100Z,15.00
2017-09-28T01:37:20.588Z,15.00
2017-09-28T01:39:48.057Z,15.10
2017-09-28T01:42:15.654Z,15.00
2017-09-28T01:44:43.135Z,15.00
2017-09-28T01:47:10.619Z,15.10
2017-09-28T01:49:38.712Z,15.10
2017-09-28T01:52:06.167Z,15.00
2017-09-28T01:54:33.640Z,14.90
2017-09-28T01:57:01.147Z,14.90
2017-09-28T01:59:28.633Z,14.70
2017-09-28T02:01:56.134Z,14.80
2017-09-28T02:04:23.569Z,14.60
2017-09-28T02:06:51.053Z,14.60
2017-09-28T02:09:19.283Z,14.80
2017-09-28T02:11:46.736Z,14.80
2017-09-28T02:14:14.969Z,14.80
2017-09-28T02:16:42.421Z,14.80
2017-09-28T02:19:10.105Z,14.80
2017-09-28T02:21:37.579Z,14.80
2017-09-28T02:24:05.033Z,14.80
2017-09-28T02:26:33.242Z,14.90
2017-09-28T02:29:00.768Z,14.90
2017-09-28T02:31:28.245Z,14.90
2017-09-28T02:33:55.700Z,14.70
2017-09-28T02:36:27.104Z,14.70
2017-09-28T02:38:55.350Z,14.70
2017-09-28T02:41:22.784Z,14.60
2017-09-28T02:43:50.240Z,14.50
2017-09-28T02:46:17.706Z,14.60
2017-09-28T02:48:45.145Z,14.60
2017-09-28T02:51:12.611Z,14.50
2017-09-28T02:53:40.523Z,14.50
2017-09-28T02:56:07.956Z,14.50
2017-09-28T02:58:35.406Z,14.50
2017-09-28T03:01:03.650Z,14.50
2017-09-28T03:03:31.095Z,14.50
2017-09-28T03:05:58.590Z,14.50
2017-09-28T03:08:26.031Z,14.60
2017-09-28T03:10:54.244Z,14.50
2017-09-28T03:13:21.703Z,14.50
2017-09-28T03:15:49.912Z,14.60
2017-09-28T03:18:17.887Z,14.60
2017-09-28T03:20:45.333Z,14.50
2017-09-28T03:23:16.645Z,14.60
2017-09-28T03:25:44.718Z,14.50
2017-09-28T03:28:12.190Z,14.60
2017-09-28T03:30:39.640Z,14.70
2017-09-28T03:33:07.962Z,14.60
2017-09-28T03:35:36.155Z,14.60
2017-09-28T03:38:03.755Z,14.60
2017-09-28T03:40:31.211Z,14.50
2017-09-28T03:42:58.679Z,14.60
2017-09-28T03:45:26.143Z,14.50
2017-09-28T03:47:54.068Z,14.50
2017-09-28T03:50:22.279Z,14.50
2017-09-28T03:52:49.754Z,14.50
2017-09-28T03:55:17.229Z,14.50
2017-09-28T03:57:44.644Z,14.50
2017-09-28T04:00:12.877Z,14.50
2017-09-28T04:02:40.360Z,14.50
2017-09-28T04:05:07.822Z,14.50
2017-09-28T04:07:35.260Z,14.50
2017-09-28T04:10:03.479Z,14.50
2017-09-28T04:12:30.940Z,14.50
2017-09-28T04:14:59.151Z,14.60
2017-09-28T04:17:26.895Z,14.60
2017-09-28T04:19:55.125Z,14.50
2017-09-28T04:22:22.564Z,14.50
2017-09-28T04:24:50.803Z,14.60
2017-09-28T04:27:18.265Z,14.60
2017-09-28T04:29:45.714Z,14.50
2017-09-28T04:32:13.175Z,14.50
2017-09-28T04:34:41.392Z,14.50
2017-09-28T04:37:08.863Z,14.50
2017-09-28T04:39:37.100Z,14.50
2017-09-28T04:42:04.564Z,14.50
2017-09-28T04:44:32.078Z,14.50
2017-09-28T04:46:59.524Z,14.50
2017-09-28T04:49:26.988Z,14.40
2017-09-28T04:51:54.487Z,14.30
2017-09-28T04:54:21.953Z,14.30
2017-09-28T04:56:49.400Z,14.30
2017-09-28T04:59:16.891Z,14.30
2017-09-28T05:01:44.335Z,14.40
2017-09-28T05:04:11.913Z,14.40
2017-09-28T05:06:40.195Z,14.40
2017-09-28T05:09:08.410Z,14.50
2017-09-28T05:11:35.855Z,14.50
2017-09-28T05:14:04.079Z,14.50
2017-09-28T05:16:31.530Z,14.50
2017-09-28T05:18:58.991Z,14.50
2017-09-28T05:21:27.228Z,14.50
2017-09-28T05:23:54.734Z,14.50
2017-09-28T05:26:22.389Z,14.50
2017-09-28T05:28:50.573Z,14.40
2017-09-28T05:31:18.024Z,14.40
2017-09-28T05:33:45.479Z,14.40
2017-09-28T05:36:13.924Z,14.40
2017-09-28T05:38:42.137Z,14.40
2017-09-28T05:41:09.712Z,14.40
2017-09-28T05:43:37.190Z,14.20
2017-09-28T05:46:04.660Z,14.20
2017-09-28T05:48:32.648Z,14.30
2017-09-28T05:51:00.124Z,14.40
2017-09-28T05:53:27.658Z,14.40
2017-09-28T05:55:56.352Z,14.50
2017-09-28T05:58:23.815Z,14.40
2017-09-28T06:00:52.060Z,14.50
2017-09-28T06:03:19.532Z,14.50
2017-09-28T06:05:46.984Z,14.60
2017-09-28T06:08:14.531Z,14.70
2017-09-28T06:10:43.516Z,14.60
2017-09-28T06:13:11.040Z,14.60
2017-09-28T06:15:39.244Z,14.70
2017-09-28T06:18:06.728Z,14.70
2017-09-28T06:20:34.185Z,14.70
2017-09-28T06:23:01.620Z,14.60
2017-09-28T06:25:29.104Z,14.70
2017-09-28T06:27:56.708Z,14.70
2017-09-28T06:30:24.912Z,14.70
2017-09-28T06:32:52.384Z,14.60
2017-09-28T06:35:19.845Z,14.70
2017-09-28T06:37:47.316Z,14.60
2017-09-28T06:40:16.033Z,14.70
2017-09-28T06:42:43.488Z,14.70
2017-09-28T06:45:11.720Z,14.70
2017-09-28T06:47:39.193Z,14.70
2017-09-28T06:50:07.389Z,14.70
2017-09-28T06:52:34.860Z,15.00
2017-09-28T06:55:02.373Z,15.20
2017-09-28T06:57:29.860Z,15.30
2017-09-28T06:59:58.072Z,15.60
2017-09-28T07:02:26.307Z,15.70
2017-09-28T07:04:57.676Z,15.70
2017-09-28T07:07:25.161Z,15.60
2017-09-28T07:09:53.340Z,15.90
2017-09-28T07:12:20.840Z,16.10
2017-09-28T07:14:48.331Z,16.20
2017-09-28T07:17:16.543Z,16.10
2017-09-28T07:19:44.125Z,16.10
2017-09-28T07:22:11.601Z,16.10
2017-09-28T07:24:39.076Z,16.20
2017-09-28T07:27:06.548Z,16.20
2017-09-28T07:29:34.775Z,16.20
2017-09-28T07:32:02.253Z,16.20
2017-09-28T07:34:29.699Z,16.20
2017-09-28T07:36:57.175Z,15.80
2017-09-28T07:39:24.624Z,15.90
2017-09-28T07:41:52.858Z,15.80
2017-09-28T07:44:20.319Z,15.70
2017-09-28T07:46:47.848Z,15.80
2017-09-28T07:49:15.318Z,15.80
2017-09-28T07:51:42.788Z,16.10
2017-09-28T07:54:10.238Z,15.90
2017-09-28T07:56:37.703Z,15.80
2017-09-28T07:59:06.175Z,16.10
2017-09-28T08:01:33.636Z,16.20
2017-09-28T08:04:01.888Z,16.30
2017-09-28T08:06:30.124Z,16.30
2017-09-28T08:08:57.600Z,16.30
2017-09-28T08:11:25.813Z,16.90
2017-09-28T08:13:53.295Z,16.80
2017-09-28T08:16:20.861Z,17.30
2017-09-28T08:18:48.329Z,17.50
2017-09-28T08:21:15.832Z,17.60
2017-09-28T08:23:43.381Z,17.60
2017-09-28T08:26:11.599Z,18.00
2017-09-28T08:28:39.079Z,18.00
2017-09-28T08:31:06.569Z,17.90
2017-09-28T08:33:34.086Z,18.00
2017-09-28T08:36:02.305Z,17.80
2017-09-28T08:38:29.789Z,17.80
2017-09-28T08:40:57.257Z,17.50
2017-09-28T08:43:24.789Z,17.50
2017-09-28T08:45:52.266Z,17.40
2017-09-28T08:48:19.759Z,17.20
2017-09-28T08:50:47.967Z,17.30
2017-09-28T08:53:16.045Z,17.30
2017-09-28T08:55:43.516Z,17.30
2017-09-28T08:58:11.740Z,16.80
2017-09-28T09:00:39.212Z,16.80
2017-09-28T09:03:06.681Z,17.00
2017-09-28T09:05:34.160Z,17.30
2017-09-28T09:08:01.628Z,17.30
2017-09-28T09:10:29.812Z,17.30
2017-09-28T09:12:57.259Z,17.30
2017-09-28T09:15:25.488Z,17.70
2017-09-28T09:17:52.944Z,17.70
2017-09-28T09:20:21.181Z,18.00
2017-09-28T09:22:48.653Z,18.00
2017-09-28T09:25:16.957Z,18.20
2017-09-28T09:27:44.425Z,18.20
2017-09-28T09:30:11.881Z,18.20
2017-09-28T09:32:39.349Z,18.30
2017-09-28T09:35:06.816Z,18.30
2017-09-28T09:37:34.269Z,18.70
2017-09-28T09:40:02.515Z,19.40
2017-09-28T09:42:30.060Z,19.40
2017-09-28T09:44:57.834Z,19.50
2017-09-28T09:47:25.294Z,19.00
2017-09-28T09:49:53.508Z,19.10
2017-09-28T09:52:20.973Z,19.10
2017-09-28T09:54:48.482Z,19.60
2017-09-28T09:57:15.951Z,19.50
2017-09-28T09:59:43.400Z,19.70
2017-09-28T10:02:11.627Z,20.10
2017-09-28T10:04:39.849Z,20.10
2017-09-28T10:07:15.729Z,20.10
2017-09-28T10:09:51.767Z,20.10
2017-09-28T10:12:22.931Z,20.00
2017-09-28T10:14:52.759Z,19.80
2017-09-28T10:17:20.219Z,19.60
2017-09-28T10:19:47.689Z,19.50
2017-09-28T10:22:15.130Z,19.80
2017-09-28T10:24:43.446Z,20.00
2017-09-28T10:27:11.236Z,20.20
2017-09-28T10:29:39.393Z,20.20
2017-09-28T10:32:07.663Z,20.10
2017-09-28T10:34:35.128Z,20.10
2017-09-28T10:37:06.828Z,20.10
2017-09-28T10:39:35.073Z,19.90
2017-09-28T10:42:02.575Z,19.90
2017-09-28T10:44:30.056Z,20.00
2017-09-28T10:46:57.548Z,19.80
2017-09-28T10:49:25.010Z,20.30
2017-09-28T10:51:52.513Z,20.80
2017-09-28T10:54:20.727Z,21.30
2017-09-28T10:56:48.297Z,21.30
2017-09-28T10:59:16.553Z,21.90
2017-09-28T11:01:44.018Z,21.90
2017-09-28T11:04:11.477Z,21.70
2017-09-28T11:06:38.927Z,21.60
2017-09-28T11:09:06.420Z,21.50
2017-09-28T11:11:33.857Z,21.40
2017-09-28T11:14:01.336Z,21.50
2017-09-28T11:16:28.811Z,22.20
2017-09-28T11:18:56.256Z,22.80
2017-09-28T11:21:24.491Z,22.80
2017-09-28T11:23:52.062Z,22.70
2017-09-28T11:26:19.541Z,23.10
2017-09-28T11:28:46.982Z,23.60
2017-09-28T11:31:15.302Z,23.40
2017-09-28T11:33:43.512Z,23.30
2017-09-28T11:36:10.971Z,23.30
2017-09-28T11:38:38.513Z,23.40
2017-09-28T11:41:05.957Z,23.40
2017-09-28T11:43:33.433Z,23.70
2017-09-28T11:46:00.880Z,23.90
2017-09-28T11:48:28.358Z,24.50
2017-09-28T11:50:55.832Z,23.90
2017-09-28T11:53:23.288Z,23.30
2017-09-28T11:55:50.784Z,23.00
2017-09-28T11:58:18.259Z,22.90
2017-09-28T12:00:46.490Z,22.30
2017-09-28T12:03:13.956Z,22.30
2017-09-28T12:05:41.425Z,22.50
2017-09-28T12:08:08.868Z,22.50
2017-09-28T12:10:36.348Z,22.10
2017-09-28T12:13:03.806Z,21.60
2017-09-28T12:15:31.279Z,21.10
2017-09-28T12:17:59.492Z,22.00
2017-09-28T12:20:26.953Z,22.00
2017-09-28T12:22:54.431Z,22.10
2017-09-28T12:25:21.894Z,22.50
2017-09-28T12:27:50.108Z,23.20
2017-09-28T12:30:17.576Z,23.10
2017-09-28T12:32:49.341Z,23.80
2017-09-28T12:35:16.790Z,24.10
2017-09-28T12:37:44.267Z,24.80
2017-09-28T12:40:12.549Z,26.70
2017-09-28T12:42:40.030Z,26.60
2017-09-28T12:45:07.521Z,26.80
2017-09-28T12:47:35.861Z,26.50
2017-09-28T12:50:03.331Z,26.40
2017-09-28T12:52:30.885Z,27.50
2017-09-28T12:54:59.084Z,27.80
2017-09-28T12:57:26.565Z,27.70
2017-09-28T12:59:54.161Z,28.20
2017-09-28T13:02:21.626Z,28.20
2017-09-28T13:04:49.166Z,28.20
2017-09-28T13:07:17.377Z,26.10
2017-09-28T13:09:44.869Z,26.10
2017-09-28T13:12:12.464Z,26.30
2017-09-28T13:14:39.904Z,26.10
2017-09-28T13:17:07.404Z,26.50
2017-09-28T13:19:35.617Z,26.30
2017-09-28T13:22:03.117Z,26.20
2017-09-28T13:24:30.578Z,26.10
2017-09-28T13:26:58.084Z,26.10
2017-09-28T13:29:25.580Z,26.10
2017-09-28T13:31:53.028Z,26.20
2017-09-28T13:34:21.264Z,25.80
2017-09-28T13:36:48.761Z,25.80
2017-09-28T13:39:16.253Z,25.30
2017-09-28T13:41:43.688Z,24.60
2017-09-28T13:44:11.177Z,24.10
2017-09-28T13:46:38.628Z,24.00
2017-09-28T13:49:06.079Z,23.90
2017-09-28T13:51:34.295Z,24.10
2017-09-28T13:54:01.756Z,24.10
2017-09-28T13:56:29.218Z,24.20
2017-09-28T13:58:57.438Z,24.00
2017-09-28T14:01:24.933Z,24.00
2017-09-28T14:03:52.394Z,23.80
2017-09-28T14:06:19.873Z,24.40
2017-09-28T14:08:47.402Z,25.10
2017-09-28T14:11:14.849Z,24.70
2017-09-28T14:13:42.321Z,24.60
2017-09-28T14:16:10.505Z,25.20
2017-09-28T14:18:37.923Z,25.40
2017-09-28T14:21:06.579Z,24.70
2017-09-28T14:23:34.055Z,24.70
2017-09-28T14:26:01.495Z,24.50
2017-09-28T14:28:28.966Z,23.80
2017-09-28T14:30:56.474Z,23.60
2017-09-28T14:33:23.896Z,23.60
2017-09-28T14:35:52.128Z,23.80
2017-09-28T14:38:19.584Z,23.80
2017-09-28T14:40:47.099Z,24.20
2017-09-28T14:43:14.569Z,24.30
2017-09-28T14:45:42.045Z,24.00
2017-09-28T14:48:09.519Z,23.90
2017-09-28T14:50:37.008Z,23.60
2017-09-28T14:53:04.464Z,23.60
2017-09-28T14:55:31.921Z,23.40
2017-09-28T14:57:59.393Z,23.10
2017-09-28T15:00:26.854Z,22.70
2017-09-28T15:02:55.107Z,22.40
2017-09-28T15:05:23.026Z,22.40
2017-09-28T15:07:51.250Z,22.30
2017-09-28T15:10:19.392Z,22.30
2017-09-28T15:12:46.943Z,22.30
2017-09-28T15:15:14.589Z,22.20
2017-09-28T15:17:42.083Z,22.10
2017-09-28T15:20:09.551Z,22.00
2017-09-28T15:22:36.992Z,22.10
2017-09-28T15:25:05.244Z,22.10
2017-09-28T15:27:32.713Z,22.00
2017-09-28T15:30:00.939Z,22.00
2017-09-28T15:32:29.161Z,22.10
2017-09-28T15:34:57.041Z,22.00
2017-09-28T15:37:24.497Z,22.10
2017-09-28T15:39:52.768Z,22.10
2017-09-28T15:42:20.268Z,22.10
2017-09-28T15:44:47.710Z,22.20
2017-09-28T15:47:15.182Z,22.20
2017-09-28T15:49:42.634Z,22.10
2017-09-28T15:52:10.102Z,22.00
2017-09-28T15:54:37.613Z,21.90
2017-09-28T15:57:05.066Z,21.70
2017-09-28T15:59:32.548Z,21.80
2017-09-28T16:02:00.014Z,21.80
2017-09-28T16:04:27.469Z,21.70
2017-09-28T16:06:54.931Z,21.70
2017-09-28T16:09:23.156Z,21.80
2017-09-28T16:11:50.609Z,21.80
2017-09-28T16:14:18.059Z,21.50
2017-09-28T16:16:46.306Z,21.60
2017-09-28T16:19:13.759Z,21.60
2017-09-28T16:21:41.217Z,21.40
2017-09-28T16:24:08.698Z,21.40
2017-09-28T16:26:36.188Z,21.30
2017-09-28T16:29:03.653Z,21.20
2017-09-28T16:31:31.128Z,21.10
2017-09-28T16:33:58.575Z,21.10
2017-09-28T16:36:26.822Z,21.00
2017-09-28T16:38:54.424Z,21.00
2017-09-28T16:41:21.883Z,21.00
2017-09-28T16:43:49.332Z,20.90
2017-09-28T16:46:16.815Z,20.90
2017-09-28T16:48:44.324Z,20.80
2017-09-28T16:51:11.774Z,20.60
2017-09-28T16:53:40.040Z,20.40
2017-09-28T16:56:07.507Z,20.50
2017-09-28T16:58:34.994Z,20.40
2017-09-28T17:01:03.274Z,20.40
2017-09-28T17:03:31.507Z,20.30
2017-09-28T17:05:58.994Z,20.30
2017-09-28T17:08:26.558Z,20.30
2017-09-28T17:10:54.008Z,20.40
2017-09-28T17:13:21.479Z,20.30
2017-09-28T17:15:48.934Z,20.30
2017-09-28T17:18:17.152Z,20.10
2017-09-28T17:20:44.629Z,20.10
2017-09-28T17:23:12.190Z,20.10
2017-09-28T17:25:40.448Z,19.70
2017-09-28T17:28:07.884Z,19.70
2017-09-28T17:30:35.335Z,19.80
2017-09-28T17:33:02.814Z,19.70
2017-09-28T17:35:31.038Z,19.70
2017-09-28T17:37:59.345Z,19.60
2017-09-28T17:40:26.821Z,19.80
2017-09-28T17:42:54.280Z,19.70
2017-09-28T17:45:21.758Z,19.70
2017-09-28T17:47:49.232Z,19.70
2017-09-28T17:50:16.695Z,19.80
2017-09-28T17:52:44.278Z,19.60
2017-09-28T17:55:11.717Z,19.50
2017-09-28T17:57:39.964Z,19.50
2017-09-28T18:00:07.406Z,19.50
2017-09-28T18:02:35.119Z,19.60
2017-09-28T18:05:02.561Z,19.40
2017-09-28T18:07:30.005Z,19.50
2017-09-28T18:09:58.245Z,19.40
2017-09-28T18:12:25.768Z,19.40
2017-09-28T18:14:54.026Z,19.40
2017-09-28T18:17:21.521Z,19.40
2017-09-28T18:19:49.031Z,19.40
2017-09-28T18:22:17.369Z,19.30
2017-09-28T18:24:44.909Z,19.30
2017-09-28T18:27:12.416Z,19.20
2017-09-28T18:29:39.913Z,19.10
2017-09-28T18:32:07.362Z,19.10
2017-09-28T18:34:34.881Z,18.90
2017-09-28T18:37:02.376Z,18.70
2017-09-28T18:39:30.577Z,18.80
2017-09-28T18:41:58.071Z,18.80
2017-09-28T18:44:25.560Z,19.00
2017-09-28T18:46:52.997Z,19.00
2017-09-28T18:49:20.493Z,18.90
2017-09-28T18:51:47.937Z,18.90
2017-09-28T18:54:15.425Z,19.00
2017-09-28T18:56:44.229Z,19.00
2017-09-28T18:59:11.705Z,19.00
2017-09-28T19:01:39.153Z,19.00
2017-09-28T19:04:07.995Z,18.70
2017-09-28T19:06:35.560Z,18.60
2017-09-28T19:09:03.206Z,18.70
2017-09-28T19:11:30.838Z,18.80
2017-09-28T19:13:58.349Z,18.90
2017-09-28T19:16:25.862Z,18.90
2017-09-28T19:18:53.438Z,18.80
2017-09-28T19:21:21.733Z,18.70
2017-09-28T19:23:50.078Z,18.70
2017-09-28T19:26:17.565Z,18.70
2017-09-28T19:28:45.046Z,18.60
2017-09-28T19:31:13.433Z,18.70
2017-09-28T19:33:40.903Z,18.80
2017-09-28T19:36:08.397Z,18.80
2017-09-28T19:38:35.900Z,18.70
2017-09-28T19:41:04.133Z,18.80
2017-09-28T19:43:31.648Z,18.80
2017-09-28T19:45:59.893Z,18.60
2017-09-28T19:48:27.348Z,18.60
2017-09-28T19:50:54.828Z,18.60
2017-09-28T19:53:22.288Z,18.70
2017-09-28T19:55:49.739Z,18.60
2017-09-28T19:58:17.225Z,18.70
2017-09-28T20:00:44.677Z,18.70
2017-09-28T20:03:12.173Z,18.80
2017-09-28T20:05:40.393Z,18.70
2017-09-28T20:08:07.869Z,18.70
2017-09-28T20:10:36.050Z,18.50
2017-09-28T20:13:03.550Z,18.50
2017-09-28T20:15:30.998Z,18.60
2017-09-28T20:17:59.227Z,18.50
2017-09-28T20:20:26.724Z,18.50
2017-09-28T20:22:54.170Z,18.60
2017-09-28T20:25:21.636Z,18.60
2017-09-28T20:27:49.079Z,18.60
2017-09-28T20:30:17.343Z,18.60
2017-09-28T20:32:44.849Z,18.60
2017-09-28T20:35:12.434Z,18.50
2017-09-28T20:37:40.714Z,18.60
2017-09-28T20:40:08.931Z,18.60
2017-09-28T20:42:36.412Z,18.60
2017-09-28T20:45:03.861Z,18.50
2017-09-28T20:47:32.155Z,18.50
2017-09-28T20:50:00.399Z,18.50
2017-09-28T20:52:28.358Z,18.40
2017-09-28T20:54:55.876Z,18.40
2017-09-28T20:57:23.344Z,18.40
2017-09-28T20:59:52.198Z,18.30
2017-09-28T21:02:20.427Z,18.20
2017-09-28T21:04:47.908Z,18.10
2017-09-28T21:07:15.376Z,18.20
2017-09-28T21:09:43.032Z,18.10
2017-09-28T21:12:10.480Z,18.20
2017-09-28T21:14:38.711Z,18.20
2017-09-28T21:17:06.160Z,18.20
2017-09-28T21:19:34.489Z,18.20
2017-09-28T21:22:01.939Z,18.20
2017-09-28T21:24:31.203Z,18.10
2017-09-28T21:26:58.652Z,18.10
2017-09-28T21:29:26.102Z,17.90
2017-09-28T21:31:54.336Z,18.00
2017-09-28T21:34:21.788Z,17.90
2017-09-28T21:36:49.266Z,17.90
2017-09-28T21:39:16.761Z,17.90
2017-09-28T21:41:44.336Z,17.90
2017-09-28T21:44:11.816Z,17.90
2017-09-28T21:46:39.256Z,17.90
2017-09-28T21:49:06.775Z,17.70
2017-09-28T21:51:34.231Z,17.60
2017-09-28T21:54:01.903Z,17.70
2017-09-28T21:56:30.299Z,17.60
2017-09-28T21:58:57.771Z,17.60
2017-09-28T22:01:25.281Z,17.50
2017-09-28T22:03:53.287Z,17.50
2017-09-28T22:06:20.761Z,17.50
2017-09-28T22:08:49.088Z,17.50
2017-09-28T22:11:16.536Z,17.50
2017-09-28T22:13:44.764Z,17.70
2017-09-28T22:16:12.240Z,17.70
2017-09-28T22:18:39.679Z,17.50
2017-09-28T22:21:07.143Z,17.50
2017-09-28T22:23:34.765Z,17.50
2017-09-28T22:26:02.957Z,17.60
2017-09-28T22:28:30.428Z,17.50
2017-09-28T22:30:57.893Z,17.60
2017-09-28T22:33:26.107Z,17.60
2017-09-28T22:35:53.571Z,17.50
2017-09-28T22:38:21.012Z,17.60
2017-09-28T22:40:48.512Z,17.60
2017-09-28T22:43:16.711Z,17.60
2017-09-28T22:45:44.170Z,17.50
2017-09-28T22:48:12.416Z,17.60
2017-09-28T22:50:39.887Z,17.60
2017-09-28T22:53:07.345Z,17.50
2017-09-28T22:55:34.796Z,17.40
2017-09-28T22:58:02.334Z,17.30
2017-09-28T23:00:29.784Z,17.30
2017-09-28T23:02:57.237Z,17.30
2017-09-28T23:05:24.704Z,17.30
2017-09-28T23:07:52.169Z,17.30
2017-09-28T23:10:20.388Z,17.10
2017-09-28T23:12:47.987Z,17.10
2017-09-28T23:15:15.463Z,17.20
2017-09-28T23:17:43.632Z,17.20
2017-09-28T23:20:11.409Z,17.20
2017-09-28T23:22:39.901Z,17.00
2017-09-28T23:25:08.123Z,17.00
2017-09-28T23:27:35.609Z,17.00
2017-09-28T23:30:04.013Z,17.10
2017-09-28T23:32:31.474Z,17.20
2017-09-28T23:34:58.935Z,17.10
2017-09-28T23:37:26.445Z,17.10
2017-09-28T23:39:53.909Z,16.90
2017-09-28T23:42:21.358Z,17.10
2017-09-28T23:44:48.816Z,17.10
2017-09-28T23:47:16.287Z,17.10
2017-09-28T23:49:43.833Z,17.10
2017-09-28T23:52:11.300Z,17.10
2017-09-28T23:54:38.758Z,16.90
2017-09-28T23:57:06.836Z,17.00
2017-09-28T23:59:34.292Z,17.00
